sensor_id;sensor_type;location;lat;lon;timestamp;temperature;humidity
30851;DHT22;17567;48.382;9.102;2023-06-26T00:02:04;17.90;99.90
30851;DHT22;17567;48.382;9.102;2023-06-26T00:07:05;17.80;99.90
30851;DHT22;17567;48.382;9.102;2023-06-26T00:17:07;17.40;99.90
30851;DHT22;17567;48.382;9.102;2023-06-26T00:22:07;17.20;99.90
30851;DHT22;17567;48.382;9.102;2023-06-26T00:27:08;17.10;99.90
30851;DHT22;17567;48.382;9.102;2023-06-26T00:32:08;17.10;99.90
30851;DHT22;17567;48.382;9.102;2023-06-26T00:37:09;17.00;99.90
30851;DHT22;17567;48.382;9.102;2023-06-26T00:42:10;17.00;99.90
30851;DHT22;17567;48.382;9.102;2023-06-26T00:47:14;16.70;99.90
30851;DHT22;17567;48.382;9.102;2023-06-26T00:52:15;16.60;99.90
30851;DHT22;17567;48.382;9.102;2023-06-26T00:57:18;16.40;99.90
30851;DHT22;17567;48.382;9.102;2023-06-26T01:07:21;16.00;99.90
30851;DHT22;17567;48.382;9.102;2023-06-26T01:12:22;16.10;99.90
30851;DHT22;17567;48.382;9.102;2023-06-26T01:17:23;16.10;99.90
30851;DHT22;17567;48.382;9.102;2023-06-26T01:22:45;16.00;99.90
30851;DHT22;17567;48.382;9.102;2023-06-26T01:27:49;16.00;99.90
30851;DHT22;17567;48.382;9.102;2023-06-26T01:32:50;16.00;99.90
30851;DHT22;17567;48.382;9.102;2023-06-26T01:37:51;16.00;99.90
30851;DHT22;17567;48.382;9.102;2023-06-26T01:42:52;15.80;99.90
30851;DHT22;17567;48.382;9.102;2023-06-26T01:47:55;15.80;99.90
30851;DHT22;17567;48.382;9.102;2023-06-26T01:53:10;15.80;99.90
30851;DHT22;17567;48.382;9.102;2023-06-26T01:58:10;15.60;99.90
30851;DHT22;17567;48.382;9.102;2023-06-26T02:03:12;15.60;99.90
30851;DHT22;17567;48.382;9.102;2023-06-26T02:08:14;15.50;99.90
30851;DHT22;17567;48.382;9.102;2023-06-26T02:13:15;15.50;99.90
30851;DHT22;17567;48.382;9.102;2023-06-26T02:18:16;15.40;99.90
30851;DHT22;17567;48.382;9.102;2023-06-26T02:23:16;15.40;99.90
30851;DHT22;17567;48.382;9.102;2023-06-26T03:23:28;15.10;99.90
30851;DHT22;17567;48.382;9.102;2023-06-26T03:28:28;15.10;99.90
30851;DHT22;17567;48.382;9.102;2023-06-26T03:33:31;14.90;99.90
30851;DHT22;17567;48.382;9.102;2023-06-26T03:38:32;14.90;99.90
30851;DHT22;17567;48.382;9.102;2023-06-26T03:43:32;14.70;99.90
30851;DHT22;17567;48.382;9.102;2023-06-26T03:48:33;14.40;99.90
30851;DHT22;17567;48.382;9.102;2023-06-26T03:53:34;14.50;99.90
30851;DHT22;17567;48.382;9.102;2023-06-26T03:58:35;14.50;99.90
30851;DHT22;17567;48.382;9.102;2023-06-26T04:03:35;14.50;99.90
30851;DHT22;17567;48.382;9.102;2023-06-26T04:08:36;14.60;99.90
30851;DHT22;17567;48.382;9.102;2023-06-26T04:13:37;14.70;99.90
30851;DHT22;17567;48.382;9.102;2023-06-26T04:18:38;14.70;99.90
30851;DHT22;17567;48.382;9.102;2023-06-26T04:23:39;15.00;99.90
30851;DHT22;17567;48.382;9.102;2023-06-26T04:28:40;15.00;99.90
30851;DHT22;17567;48.382;9.102;2023-06-26T04:33:41;15.00;99.90
30851;DHT22;17567;48.382;9.102;2023-06-26T04:38:42;15.00;99.90
30851;DHT22;17567;48.382;9.102;2023-06-26T04:43:43;15.10;99.90
30851;DHT22;17567;48.382;9.102;2023-06-26T04:48:43;15.30;99.90
30851;DHT22;17567;48.382;9.102;2023-06-26T04:53:47;15.80;99.90
30851;DHT22;17567;48.382;9.102;2023-06-26T04:58:47;16.00;99.90
30851;DHT22;17567;48.382;9.102;2023-06-26T05:03:48;16.00;99.90
30851;DHT22;17567;48.382;9.102;2023-06-26T05:08:49;16.10;99.90
30851;DHT22;17567;48.382;9.102;2023-06-26T05:13:50;16.30;99.90
30851;DHT22;17567;48.382;9.102;2023-06-26T05:18:50;16.50;99.90
30851;DHT22;17567;48.382;9.102;2023-06-26T05:23:52;16.70;99.90
30851;DHT22;17567;48.382;9.102;2023-06-26T05:28:56;17.00;99.90
30851;DHT22;17567;48.382;9.102;2023-06-26T05:33:57;17.20;99.90
30851;DHT22;17567;48.382;9.102;2023-06-26T05:39:00;17.40;99.90
30851;DHT22;17567;48.382;9.102;2023-06-26T05:44:01;17.60;99.90
30851;DHT22;17567;48.382;9.102;2023-06-26T05:49:01;17.70;99.90
30851;DHT22;17567;48.382;9.102;2023-06-26T05:54:02;17.90;99.90
30851;DHT22;17567;48.382;9.102;2023-06-26T05:59:03;18.00;99.90
30851;DHT22;17567;48.382;9.102;2023-06-26T06:04:06;18.20;99.90
30851;DHT22;17567;48.382;9.102;2023-06-26T06:09:06;18.40;99.90
30851;DHT22;17567;48.382;9.102;2023-06-26T06:14:07;18.70;99.90
30851;DHT22;17567;48.382;9.102;2023-06-26T06:19:08;18.90;99.90
30851;DHT22;17567;48.382;9.102;2023-06-26T06:34:13;20.70;99.90
30851;DHT22;17567;48.382;9.102;2023-06-26T06:44:15;21.10;99.90
30851;DHT22;17567;48.382;9.102;2023-06-26T06:49:16;21.40;99.90
30851;DHT22;17567;48.382;9.102;2023-06-26T18:33:41;23.80;94.10
30851;DHT22;17567;48.382;9.102;2023-06-26T18:38:42;23.60;94.10
30851;DHT22;17567;48.382;9.102;2023-06-26T18:43:43;23.40;94.10
30851;DHT22;17567;48.382;9.102;2023-06-26T18:48:46;23.30;94.80
30851;DHT22;17567;48.382;9.102;2023-06-26T18:53:47;23.10;95.00
30851;DHT22;17567;48.382;9.102;2023-06-26T18:58:48;22.90;95.10
30851;DHT22;17567;48.382;9.102;2023-06-26T19:03:49;22.90;95.50
30851;DHT22;17567;48.382;9.102;2023-06-26T19:08:49;22.60;95.10
30851;DHT22;17567;48.382;9.102;2023-06-26T19:13:50;22.50;95.70
30851;DHT22;17567;48.382;9.102;2023-06-26T19:18:51;22.30;96.20
30851;DHT22;17567;48.382;9.102;2023-06-26T19:23:54;22.20;95.70
30851;DHT22;17567;48.382;9.102;2023-06-26T19:28:55;22.00;95.60
30851;DHT22;17567;48.382;9.102;2023-06-26T19:33:55;21.80;96.60
30851;DHT22;17567;48.382;9.102;2023-06-26T19:38:56;21.50;96.30
30851;DHT22;17567;48.382;9.102;2023-06-26T19:43:56;21.50;96.70
30851;DHT22;17567;48.382;9.102;2023-06-26T19:48:57;21.20;97.00
30851;DHT22;17567;48.382;9.102;2023-06-26T19:53:58;21.00;97.30
30851;DHT22;17567;48.382;9.102;2023-06-26T19:58:59;21.00;97.50
30851;DHT22;17567;48.382;9.102;2023-06-26T20:03:59;20.70;97.40
30851;DHT22;17567;48.382;9.102;2023-06-26T20:09:05;20.70;97.90
30851;DHT22;17567;48.382;9.102;2023-06-26T20:14:05;20.60;98.40
30851;DHT22;17567;48.382;9.102;2023-06-26T20:19:06;20.60;98.60
30851;DHT22;17567;48.382;9.102;2023-06-26T20:24:07;20.40;99.10
30851;DHT22;17567;48.382;9.102;2023-06-26T20:29:09;20.40;99.20
30851;DHT22;17567;48.382;9.102;2023-06-26T20:34:10;20.20;99.90
30851;DHT22;17567;48.382;9.102;2023-06-26T20:39:10;20.00;99.30
30851;DHT22;17567;48.382;9.102;2023-06-26T20:44:11;19.90;99.50
30851;DHT22;17567;48.382;9.102;2023-06-26T20:49:12;19.70;99.70
30851;DHT22;17567;48.382;9.102;2023-06-26T20:54:13;19.70;99.50
30851;DHT22;17567;48.382;9.102;2023-06-26T20:59:14;19.80;99.10
30851;DHT22;17567;48.382;9.102;2023-06-26T21:04:14;19.60;98.90
30851;DHT22;17567;48.382;9.102;2023-06-26T21:09:15;19.40;98.80
30851;DHT22;17567;48.382;9.102;2023-06-26T21:14:16;19.30;99.20
30851;DHT22;17567;48.382;9.102;2023-06-26T21:19:16;19.40;99.00
30851;DHT22;17567;48.382;9.102;2023-06-26T21:24:17;19.20;99.50
30851;DHT22;17567;48.382;9.102;2023-06-26T21:29:17;19.10;99.90
30851;DHT22;17567;48.382;9.102;2023-06-26T21:34:18;19.00;99.70
30851;DHT22;17567;48.382;9.102;2023-06-26T21:39:19;18.90;99.50
30851;DHT22;17567;48.382;9.102;2023-06-26T21:44:19;18.80;99.00
30851;DHT22;17567;48.382;9.102;2023-06-26T21:49:20;18.80;99.60
30851;DHT22;17567;48.382;9.102;2023-06-26T21:54:20;19.00;99.90
30851;DHT22;17567;48.382;9.102;2023-06-26T21:59:21;18.60;99.80
30851;DHT22;17567;48.382;9.102;2023-06-26T22:04:21;18.60;99.90
30851;DHT22;17567;48.382;9.102;2023-06-26T22:09:22;18.60;99.90
30851;DHT22;17567;48.382;9.102;2023-06-26T22:14:23;18.50;99.90
30851;DHT22;17567;48.382;9.102;2023-06-26T22:19:23;18.30;99.90
30851;DHT22;17567;48.382;9.102;2023-06-26T22:24:24;18.10;99.90
30851;DHT22;17567;48.382;9.102;2023-06-26T22:29:24;18.10;99.90
30851;DHT22;17567;48.382;9.102;2023-06-26T22:34:25;18.10;99.90
30851;DHT22;17567;48.382;9.102;2023-06-26T22:39:26;18.00;99.90
30851;DHT22;17567;48.382;9.102;2023-06-26T22:44:27;17.90;99.90
30851;DHT22;17567;48.382;9.102;2023-06-26T22:49:27;17.90;99.90
30851;DHT22;17567;48.382;9.102;2023-06-26T22:54:28;18.00;99.90
30851;DHT22;17567;48.382;9.102;2023-06-26T22:59:28;17.90;99.90
30851;DHT22;17567;48.382;9.102;2023-06-26T23:04:29;17.90;99.90
30851;DHT22;17567;48.382;9.102;2023-06-26T23:09:30;17.90;99.90
30851;DHT22;17567;48.382;9.102;2023-06-26T23:14:30;17.70;99.90
30851;DHT22;17567;48.382;9.102;2023-06-26T23:19:33;17.70;99.90
30851;DHT22;17567;48.382;9.102;2023-06-26T23:24:33;17.60;99.90
